Accueil
METAR-TAF:

METAR-TAF

Aéroports :

Aéroport international Indira-Gandhi

New Delhi, Inde

latitude: 28-34N, longitude: 077-07E, altitude: 220 m

Observation

Le bulletin a été fait il y a 36 minutes, à 04:30 UTC
Vent 3 kt de ouest/sud-ouest
Température 15°C
Humidité 82%
Pression 1021 hPa
Visibilité: 0700 m
Brouillard mince

METAR: VIDP 080430Z 24003KT 0700 R28/1000 R29/1150 MIFG NSC 15/12 Q1021 BECMG 0800 MIFG

Heure: 10:36 (05:06 UTC)

Prévision

Le bulletin a été fait il y a 3 heures et 6 minutes, à 02:00 UTC
Prévision valable du 08 à 03 UTC au 08 à 12 UTC
Vent kt de nord
Visibilité: 0100 m
brouillard
Evoluant progressivement
du 08 à 05 UTC au 08 à 06 UTC
Vent 2 kt de direction variable
Visibilité: 0500 m
brouillard
Evoluant progressivement
du 08 à 09 UTC au 08 à 11 UTC
Vent 5 kt de ouest/nord-ouest
Visibilité: 1500 m
fumée

TAF: VIDP 080200Z 0803/0812 00000KT 0100 FG NSC BECMG 0805/0806 VRB02KT 0500 FG BECMG 0809/0811 29005KT 1500 FU

Observations et prévisions météorologiques de plus de 4000 aéroports (messages METAR et TAF).

Les stations disponibles sont représentées par des disques jaunes et rouges sur la carte.

Passer la souris dessus pour voir le nom de la station.

Cliquer dessus pour voir les observations et prévisions météorologiques.

Pour changer de carte: cliquez sur les boutons verts avec une croix noire pour zoomer, sur le bouton vert avec un tiret pour effectuer un zoom arrière, ou sur les flèches vertes pour les cartes adjacentes.


METAR-TAF: